Time;durP1;ratioP1;P1;durP2;ratioP2;P2;SDS_P1;SDS_P2;PMS_P1;PMS_P2;Temp;Humidity;BMP_temperature;BMP_pressure;BME280_temperature;BME280_humidity;BME280_pressure;Samples;Min_cycle;Max_cycle;Signal;HPM_P1;HPM_P2
2022/07/16 00:03:40;;;;;;;;;4.25;4.00;;;;;23.48;35.64;101632.41;5113734;27;45494;-85
2022/07/16 00:06:05;;;;;;;;;5.00;5.00;;;;;23.52;35.66;101642.25;5113945;27;44940;-84
2022/07/16 00:08:31;;;;;;;;;5.25;4.75;;;;;23.30;35.87;101615.50;5113716;27;44892;-83
2022/07/16 00:10:56;;;;;;;;;5.00;5.00;;;;;23.27;36.03;101623.56;5114487;27;45015;-85
2022/07/16 00:13:21;;;;;;;;;4.25;3.50;;;;;23.25;35.74;101627.13;5127442;27;46879;-84
2022/07/16 00:15:47;;;;;;;;;3.75;3.75;;;;;23.35;35.36;101647.66;5114619;27;45043;-85
2022/07/16 00:20:56;;;;;;;;;5.00;4.00;;;;;23.16;35.73;101631.66;5114404;27;45073;-85
2022/07/16 00:23:21;;;;;;;;;3.00;3.00;;;;;23.16;35.84;101633.44;5113420;27;46828;-83
2022/07/16 00:25:46;;;;;;;;;5.00;5.00;;;;;23.08;35.84;101628.09;5109938;27;45278;-83
2022/07/16 00:28:12;;;;;;;;;4.00;4.00;;;;;23.14;36.08;101638.78;5113883;27;45005;-84
2022/07/16 00:30:37;;;;;;;;;3.00;3.00;;;;;23.11;35.94;101636.13;5126911;27;45226;-84
2022/07/16 00:33:02;;;;;;;;;2.75;2.75;;;;;23.09;36.10;101628.97;5111761;27;45802;-84
2022/07/16 00:35:28;;;;;;;;;4.00;4.00;;;;;23.04;35.77;101622.75;5112320;27;44976;-84
2022/07/16 00:37:53;;;;;;;;;3.75;3.75;;;;;23.02;36.14;101621.88;5113901;27;44945;-83
2022/07/16 00:40:19;;;;;;;;;3.00;3.00;;;;;22.92;36.05;101612.94;5114216;27;44975;-83
2022/07/16 00:42:44;;;;;;;;;3.75;3.75;;;;;22.87;36.17;101604.00;5113568;27;45604;-82
2022/07/16 00:45:10;;;;;;;;;3.75;3.75;;;;;22.90;36.67;101614.72;5112670;27;45085;-85
2022/07/16 00:47:35;;;;;;;;;5.00;4.25;;;;;22.76;36.25;101595.97;5113160;27;44909;-82
2022/07/16 00:50:00;;;;;;;;;5.50;4.00;;;;;22.97;36.12;101629.91;5110684;27;45143;-84
2022/07/16 00:52:26;;;;;;;;;3.00;3.00;;;;;22.89;36.92;101618.31;5110906;27;46865;-84
2022/07/16 00:54:51;;;;;;;;;4.00;3.75;;;;;22.94;36.71;101627.22;5110577;27;45951;-85
2022/07/16 00:57:17;;;;;;;;;3.00;3.00;;;;;22.79;36.66;101606.66;5113392;27;45006;-84
2022/07/16 00:59:42;;;;;;;;;4.00;4.00;;;;;22.88;37.32;101628.13;5113705;27;45023;-84
2022/07/16 01:02:08;;;;;;;;;4.75;3.25;;;;;22.91;36.95;101635.31;5112992;27;46122;-85
2022/07/16 01:04:34;;;;;;;;;3.50;2.25;;;;;22.71;36.66;101607.56;5113040;27;45013;-84
2022/07/16 01:07:00;;;;;;;;;3.00;3.00;;;;;22.72;37.14;101622.78;5112515;27;45307;-83
2022/07/16 01:09:26;;;;;;;;;5.50;4.25;;;;;22.77;37.36;101639.75;5112164;27;45518;-83
2022/07/16 01:11:52;;;;;;;;;6.75;5.00;;;;;22.63;37.45;101637.09;5111450;27;46880;-83
2022/07/16 01:14:18;;;;;;;;;4.00;3.50;;;;;22.56;37.60;101633.53;5113211;27;45072;-85
2022/07/16 01:16:44;;;;;;;;;3.75;3.75;;;;;22.50;38.20;101629.94;5113425;27;44994;-83
2022/07/16 01:19:11;;;;;;;;;4.00;4.00;;;;;22.51;38.33;101642.44;5110774;27;45480;-84
2022/07/16 01:21:36;;;;;;;;;4.00;4.00;;;;;22.34;38.56;101623.69;5112942;27;45551;-84
2022/07/16 01:24:01;;;;;;;;;5.00;4.75;;;;;22.06;38.77;101601.31;5109673;27;45426;-85
2022/07/16 01:26:27;;;;;;;;;4.00;4.00;;;;;22.06;39.04;101617.38;5112533;27;45367;-83
2022/07/16 01:28:52;;;;;;;;;3.50;3.50;;;;;21.95;39.12;101606.66;5113132;27;45004;-83
2022/07/16 01:31:18;;;;;;;;;5.75;4.25;;;;;22.01;39.01;101621.84;5111620;27;45607;-84
2022/07/16 01:33:44;;;;;;;;;4.75;4.00;;;;;22.00;38.93;101620.06;5111891;27;44912;-83
2022/07/16 01:36:14;;;;;;;;;6.00;4.75;;;;;22.07;39.80;101633.47;5113603;27;45175;-83
2022/07/16 01:38:43;;;;;;;;;3.50;3.50;;;;;22.06;39.31;101639.69;5128388;27;44905;-85
2022/07/16 01:41:09;;;;;;;;;3.50;3.50;;;;;22.03;39.21;101637.03;5109339;27;45839;-84
2022/07/16 01:43:34;;;;;;;;;4.75;4.00;;;;;22.01;39.05;101641.47;5111147;27;45184;-83
2022/07/16 01:46:00;;;;;;;;;5.00;4.75;;;;;21.92;39.14;101612.03;5127046;27;45380;-84
2022/07/16 01:48:26;;;;;;;;;4.00;4.00;;;;;22.02;39.93;101628.97;5127418;27;45306;-85
2022/07/16 01:50:53;;;;;;;;;7.75;6.00;;;;;21.92;39.49;101614.72;5110915;27;46999;-83
2022/07/16 01:53:18;;;;;;;;;4.00;4.00;;;;;21.98;40.04;101635.22;5112998;27;45339;-83
2022/07/16 01:55:44;;;;;;;;;5.00;4.00;;;;;21.98;39.63;101640.59;5111617;27;44890;-82
2022/07/16 01:58:12;;;;;;;;;4.50;3.25;;;;;21.91;39.81;101631.63;5112367;27;44970;-83
2022/07/16 02:00:40;;;;;;;;;5.50;4.50;;;;;21.77;39.87;101620.00;5112882;27;45522;-83
2022/07/16 02:03:06;;;;;;;;;3.25;3.25;;;;;21.73;39.68;101624.47;5108386;27;45451;-83
2022/07/16 02:05:31;;;;;;;;;4.75;4.00;;;;;21.63;40.15;101612.84;5112847;27;45034;-83
2022/07/16 02:07:57;;;;;;;;;4.00;4.00;;;;;21.71;40.55;101623.56;5112376;27;44888;-83
2022/07/16 02:10:22;;;;;;;;;5.00;5.00;;;;;21.58;40.24;101606.59;5110342;27;46955;-83
2022/07/16 02:12:48;;;;;;;;;7.00;6.00;;;;;21.14;40.37;101547.56;5111729;27;45187;-83
2022/07/16 02:15:14;;;;;;;;;6.00;5.25;;;;;21.45;40.66;101620.78;5112213;27;45103;-81
2022/07/16 02:17:39;;;;;;;;;5.00;5.00;;;;;21.41;40.81;101612.75;5125926;27;45154;-83
2022/07/16 02:20:08;;;;;;;;;4.50;4.00;;;;;21.07;41.10;101562.66;5107756;27;45105;-82
2022/07/16 02:22:34;;;;;;;;;4.25;4.25;;;;;21.10;41.26;101584.06;5125912;27;45272;-83
2022/07/16 02:25:00;;;;;;;;;4.00;3.50;;;;;21.21;41.06;101599.28;5110631;27;45312;-83
2022/07/16 02:27:26;;;;;;;;;4.50;3.50;;;;;21.00;41.33;101565.31;5111883;27;45256;-82
2022/07/16 02:29:51;;;;;;;;;6.75;5.00;;;;;20.96;41.52;101563.50;5111838;27;45579;-83
2022/07/16 02:32:17;;;;;;;;;5.25;5.25;;;;;21.05;41.27;101582.28;5110080;27;45204;-83
2022/07/16 02:34:42;;;;;;;;;4.25;4.25;;;;;21.29;41.06;101621.59;5111767;27;45216;-83
2022/07/16 02:37:07;;;;;;;;;1.25;1.25;;;;;21.20;41.53;101624.22;5125598;27;45296;-83
2022/07/16 02:39:33;;;;;;;;;4.75;4.00;;;;;21.01;41.88;101594.72;5127806;27;47399;-83
2022/07/16 02:41:59;;;;;;;;;4.25;4.00;;;;;21.14;41.23;101619.75;5126697;27;45341;-83
2022/07/16 02:44:26;;;;;;;;;4.25;4.00;;;;;21.00;41.89;101595.59;5108937;27;45223;-82
2022/07/16 02:46:51;;;;;;;;;4.00;4.00;;;;;21.11;41.86;101623.28;5127049;27;44975;-84
2022/07/16 02:49:17;;;;;;;;;4.75;4.00;;;;;21.01;41.81;101618.78;5127579;27;46604;-83
2022/07/16 02:51:42;;;;;;;;;5.00;5.00;;;;;21.05;41.86;101623.25;5108895;27;45231;-83
2022/07/16 02:54:07;;;;;;;;;4.25;4.00;;;;;20.96;41.90;101612.50;5107296;27;45270;-82
2022/07/16 02:56:33;;;;;;;;;5.75;5.00;;;;;21.08;41.69;101639.31;5107079;27;45154;-83
2022/07/16 02:58:58;;;;;;;;;4.25;4.00;;;;;20.92;42.07;101607.13;5107059;27;45204;-83
2022/07/16 03:01:24;;;;;;;;;6.00;4.00;;;;;20.94;42.32;101613.41;5108580;27;45231;-83
2022/07/16 03:03:49;;;;;;;;;4.25;4.25;;;;;20.66;42.11;101574.91;5127113;27;44999;-82
2022/07/16 03:06:15;;;;;;;;;6.00;5.00;;;;;20.62;42.57;101563.31;5110121;27;45031;-84
2022/07/16 03:08:40;;;;;;;;;4.75;4.75;;;;;20.69;42.26;101578.50;5109501;27;46973;-83
2022/07/16 03:11:05;;;;;;;;;4.75;4.75;;;;;21.06;42.40;101650.88;5109275;27;45048;-82
2022/07/16 03:13:31;;;;;;;;;6.50;5.25;;;;;20.79;42.65;101625.78;5110901;27;45175;-83
2022/07/16 03:15:56;;;;;;;;;5.50;4.50;;;;;20.10;42.75;101494.41;5110454;27;45418;-82
2022/07/16 03:18:21;;;;;;;;;4.00;4.00;;;;;20.65;42.56;101597.19;5108524;27;47405;-84
2022/07/16 03:20:47;;;;;;;;;4.00;4.00;;;;;20.86;42.81;101645.41;5110921;27;45437;-83
2022/07/16 03:23:13;;;;;;;;;4.00;4.00;;;;;20.84;42.84;101653.41;5108936;27;45221;-82
2022/07/16 03:25:38;;;;;;;;;5.25;5.00;;;;;20.73;43.45;101640.84;5111238;27;45120;-83
2022/07/16 03:28:04;;;;;;;;;6.00;5.00;;;;;20.45;42.47;101597.00;5109678;27;47356;-83
2022/07/16 03:30:29;;;;;;;;;4.75;4.75;;;;;20.73;42.86;101643.53;5109466;27;45144;-82
2022/07/16 03:32:57;;;;;;;;;4.00;4.00;;;;;20.72;43.14;101656.00;5114378;27;45116;-84
2022/07/16 03:35:22;;;;;;;;;5.00;5.00;;;;;20.40;43.35;101609.44;5115089;27;45121;-84
2022/07/16 03:40:33;;;;;;;;;5.25;5.00;;;;;20.49;43.32;101631.78;5112855;27;45629;-84
2022/07/16 03:42:59;;;;;;;;;6.00;6.00;;;;;20.40;43.46;101617.44;5130610;27;45205;-82
2022/07/16 03:45:25;;;;;;;;;5.25;5.25;;;;;20.40;43.80;101621.00;5113408;27;45030;-85
2022/07/16 03:47:51;;;;;;;;;6.00;6.00;;;;;20.59;43.58;101655.03;5113492;27;45413;-82
2022/07/16 03:50:18;;;;;;;;;6.00;6.00;;;;;20.41;43.56;101621.88;5105646;27;45434;-83
2022/07/16 03:52:44;;;;;;;;;6.00;5.50;;;;;20.51;43.46;101650.50;5114304;27;45316;-83
2022/07/16 03:55:10;;;;;;;;;5.00;5.00;;;;;19.99;43.57;101585.91;5112433;27;45027;-84
2022/07/16 03:57:36;;;;;;;;;5.00;4.75;;;;;20.11;43.80;101580.69;5113976;27;45342;-84
2022/07/16 04:00:02;;;;;;;;;4.75;4.50;;;;;20.31;43.45;101631.59;5114499;27;45116;-85
2022/07/16 04:02:27;;;;;;;;;4.00;4.00;;;;;20.22;43.62;101604.81;5113541;27;45187;-83
2022/07/16 04:04:53;;;;;;;;;6.00;5.00;;;;;19.99;43.71;101569.91;5113971;27;45003;-82
2022/07/16 04:07:18;;;;;;;;;5.25;4.75;;;;;20.44;43.63;101637.91;5113014;27;47013;-83
2022/07/16 04:09:43;;;;;;;;;7.33;5.33;;;;;20.29;43.52;101628.88;5113659;27;45074;-84
2022/07/16 04:12:09;;;;;;;;;5.25;4.50;;;;;20.07;43.77;101595.78;5111886;27;45078;-83
2022/07/16 04:14:35;;;;;;;;;7.75;7.25;;;;;19.95;43.78;101585.00;5114099;27;45203;-83
2022/07/16 04:17:00;;;;;;;;;5.50;5.00;;;;;20.02;43.70;101605.53;5129356;27;47229;-84
2022/07/16 04:19:25;;;;;;;;;6.00;5.75;;;;;19.74;44.16;101552.75;5111460;27;45143;-82
2022/07/16 04:21:50;;;;;;;;;6.25;6.00;;;;;19.87;43.97;101564.47;5111317;27;45365;-85
2022/07/16 04:24:16;;;;;;;;;4.25;3.25;;;;;19.81;44.25;101570.63;5111394;27;45204;-83
2022/07/16 04:26:41;;;;;;;;;6.75;6.00;;;;;20.27;43.95;101646.69;5112490;27;45765;-82
2022/07/16 04:29:06;;;;;;;;;6.00;4.25;;;;;20.44;43.66;101681.53;5113221;27;45155;-84
2022/07/16 04:31:32;;;;;;;;;6.00;5.25;;;;;20.42;44.04;101688.66;5113443;27;45035;-84
2022/07/16 04:33:57;;;;;;;;;6.50;5.75;;;;;20.25;44.75;101653.78;5113477;27;44948;-82
2022/07/16 04:36:22;;;;;;;;;4.00;3.00;;;;;20.31;44.70;101664.53;5113840;27;45266;-83
2022/07/16 04:38:48;;;;;;;;;5.25;4.75;;;;;19.95;44.26;101603.69;5109229;27;45314;-82
2022/07/16 04:41:13;;;;;;;;;6.00;6.00;;;;;19.91;45.07;101612.53;5113205;27;45061;-83
2022/07/16 04:43:39;;;;;;;;;5.25;4.50;;;;;20.11;45.09;101647.44;5109491;27;45236;-83
2022/07/16 04:46:04;;;;;;;;;5.00;5.00;;;;;19.89;45.23;101614.28;5111994;27;47186;-83
2022/07/16 04:48:29;;;;;;;;;5.25;4.75;;;;;20.15;45.25;101683.03;5128460;27;44943;-83
2022/07/16 04:50:55;;;;;;;;;6.50;6.25;;;;;19.93;45.62;101636.56;5110761;27;44876;-83
2022/07/16 04:53:20;;;;;;;;;6.00;5.50;;;;;19.68;45.91;101600.72;5111267;27;45260;-82
2022/07/16 04:55:46;;;;;;;;;4.50;4.50;;;;;20.03;46.28;101652.66;5113343;27;45553;-83
2022/07/16 04:58:11;;;;;;;;;6.25;6.25;;;;;19.74;46.06;101611.44;5112902;27;45335;-84
2022/07/16 05:00:37;;;;;;;;;4.25;4.25;;;;;20.18;46.03;101689.28;5113421;27;45078;-83
2022/07/16 05:03:02;;;;;;;;;5.00;5.00;;;;;19.93;46.12;101650.78;5128612;27;45083;-82
2022/07/16 05:05:32;;;;;;;;;5.00;5.00;;;;;20.24;45.83;101691.13;5113151;27;45656;-84
2022/07/16 05:07:58;;;;;;;;;4.25;4.25;;;;;19.91;46.01;101631.22;5111572;27;45363;-82
2022/07/16 05:10:24;;;;;;;;;7.00;7.00;;;;;20.02;45.89;101648.22;5128681;27;45202;-83
2022/07/16 05:12:50;;;;;;;;;6.50;6.25;;;;;19.99;45.76;101640.16;5113132;27;45374;-84
2022/07/16 05:15:15;;;;;;;;;5.50;5.50;;;;;20.32;45.96;101684.09;5113209;27;45368;-84
2022/07/16 05:17:40;;;;;;;;;5.50;5.50;;;;;20.26;45.81;101660.03;5109728;27;45082;-83
2022/07/16 05:20:07;;;;;;;;;6.00;6.00;;;;;20.29;46.50;101646.69;5112487;27;44935;-83
2022/07/16 05:22:32;;;;;;;;;7.00;6.25;;;;;20.41;46.40;101657.50;5112058;27;45325;-83
2022/07/16 05:24:57;;;;;;;;;6.00;5.75;;;;;20.39;46.14;101645.88;5109735;27;45798;-83
2022/07/16 05:27:23;;;;;;;;;6.50;6.00;;;;;20.54;45.46;101661.19;5110650;27;45292;-85
2022/07/16 05:29:48;;;;;;;;;5.00;4.50;;;;;20.56;44.85;101649.63;5112922;27;45056;-83
2022/07/16 05:32:13;;;;;;;;;7.25;6.00;;;;;20.54;45.04;101645.16;5109067;27;45219;-82
2022/07/16 05:34:39;;;;;;;;;6.00;5.00;;;;;20.79;44.99;101678.31;5113009;27;45611;-82
2022/07/16 05:37:04;;;;;;;;;8.00;7.00;;;;;20.84;45.31;101674.81;5112673;27;45484;-83
2022/07/16 05:39:29;;;;;;;;;7.50;6.00;;;;;20.68;44.62;101639.91;5111639;27;45080;-84
2022/07/16 05:41:55;;;;;;;;;5.00;4.00;;;;;20.77;44.39;101654.25;5110511;27;45369;-83
2022/07/16 05:44:21;;;;;;;;;5.75;5.75;;;;;20.77;44.25;101645.34;5111139;27;47050;-83
2022/07/16 05:46:46;;;;;;;;;4.25;4.25;;;;;20.90;45.02;101659.69;5108430;27;45376;-83
2022/07/16 05:49:11;;;;;;;;;5.00;5.00;;;;;20.84;45.11;101650.75;5112636;27;45030;-82
2022/07/16 05:51:37;;;;;;;;;5.25;5.00;;;;;20.93;44.67;101662.38;5110608;27;45230;-84
2022/07/16 05:54:02;;;;;;;;;5.25;5.00;;;;;21.01;44.32;101669.56;5110464;27;45574;-85
2022/07/16 05:56:27;;;;;;;;;5.00;4.50;;;;;21.22;44.42;101702.66;5108693;27;45059;-83
2022/07/16 05:58:55;;;;;;;;;6.75;6.25;;;;;21.00;44.54;101654.41;5112450;27;44897;-83
2022/07/16 06:01:21;;;;;;;;;5.00;4.50;;;;;21.18;44.08;101683.03;5111958;27;45085;-83
2022/07/16 06:03:46;;;;;;;;;3.25;3.25;;;;;21.22;44.11;101690.16;5111067;27;46654;-84
2022/07/16 06:06:12;;;;;;;;;5.50;5.25;;;;;21.22;43.66;101679.47;5112833;27;45025;-85
2022/07/16 06:08:37;;;;;;;;;4.50;4.50;;;;;21.28;43.34;101681.28;5128468;27;45173;-83
2022/07/16 06:11:02;;;;;;;;;6.25;5.00;;;;;21.38;43.37;101702.81;5112325;27;44992;-85
2022/07/16 06:13:28;;;;;;;;;7.25;5.25;;;;;21.29;43.15;101681.31;5112250;27;45572;-83
2022/07/16 06:15:53;;;;;;;;;5.25;5.25;;;;;21.52;42.83;101716.22;5108164;27;45434;-83
2022/07/16 06:18:18;;;;;;;;;6.00;6.00;;;;;21.53;43.19;101712.69;5111663;27;45057;-84
2022/07/16 06:20:43;;;;;;;;;5.75;5.25;;;;;21.48;42.64;101695.72;5110800;27;45094;-83
2022/07/16 06:23:09;;;;;;;;;5.25;5.25;;;;;21.42;43.04;101682.28;5112017;27;45179;-82
2022/07/16 06:25:34;;;;;;;;;5.00;5.00;;;;;21.48;42.61;101689.47;5110622;27;45111;-83
2022/07/16 06:27:59;;;;;;;;;5.75;5.25;;;;;21.54;42.67;101693.06;5108009;27;44991;-83
2022/07/16 06:30:25;;;;;;;;;6.67;6.67;;;;;21.64;42.81;101708.28;5110988;27;48462;-83
2022/07/16 06:32:50;;;;;;;;;4.75;4.00;;;;;21.75;42.34;101718.13;5111473;27;45683;-83
2022/07/16 06:35:16;;;;;;;;;4.00;4.00;;;;;21.72;42.11;101716.31;5110098;27;44953;-84
2022/07/16 06:37:41;;;;;;;;;7.25;6.50;;;;;21.74;42.60;101724.38;5111170;27;45174;-84
2022/07/16 06:40:08;;;;;;;;;6.00;5.75;;;;;21.80;42.24;101721.72;5112368;27;45133;-83
2022/07/16 06:42:33;;;;;;;;;5.75;5.00;;;;;21.82;42.31;101726.19;5111757;27;45724;-83
2022/07/16 06:44:59;;;;;;;;;6.00;5.25;;;;;21.84;42.32;101724.41;5111790;27;45337;-82
2022/07/16 06:47:24;;;;;;;;;5.25;5.25;;;;;21.93;42.34;101739.63;5109357;27;45154;-82
2022/07/16 06:49:50;;;;;;;;;6.25;5.50;;;;;22.07;42.27;101755.75;5109932;27;45361;-84
2022/07/16 06:52:15;;;;;;;;;5.00;5.00;;;;;22.07;42.43;101745.91;5107685;27;45433;-82
2022/07/16 06:54:40;;;;;;;;;5.00;5.00;;;;;21.99;42.28;101723.56;5111667;27;45081;-83
2022/07/16 06:57:06;;;;;;;;;5.25;5.00;;;;;21.99;42.00;101728.03;5105989;27;44997;-83
2022/07/16 06:59:31;;;;;;;;;4.75;4.75;;;;;22.04;41.93;101723.59;5111257;27;45121;-82
2022/07/16 07:01:57;;;;;;;;;8.00;6.75;;;;;22.17;41.98;101743.28;5109664;27;45224;-83
2022/07/16 07:04:22;;;;;;;;;6.00;6.00;;;;;22.07;41.87;101713.78;5110660;27;45288;-83
2022/07/16 07:06:47;;;;;;;;;4.75;4.75;;;;;22.22;41.81;101733.50;5112183;27;45122;-83
2022/07/16 07:09:13;;;;;;;;;5.75;4.75;;;;;22.34;42.28;101741.53;5113659;27;45217;-83
2022/07/16 07:11:40;;;;;;;;;5.00;5.00;;;;;22.29;41.77;101729.94;5113838;27;45468;-82
2022/07/16 07:14:05;;;;;;;;;6.00;5.00;;;;;22.34;41.23;101730.84;5113963;27;45676;-83
2022/07/16 07:16:30;;;;;;;;;5.50;4.75;;;;;22.44;41.28;101748.72;5112254;27;44967;-84
2022/07/16 07:18:56;;;;;;;;;6.00;4.00;;;;;22.44;41.69;101735.31;5126343;27;45172;-84
2022/07/16 07:21:21;;;;;;;;;6.25;6.25;;;;;22.52;41.00;101744.25;5111184;27;47718;-84
2022/07/16 07:23:46;;;;;;;;;6.00;4.75;;;;;22.42;41.06;101729.06;5127484;27;45290;-84
2022/07/16 07:26:12;;;;;;;;;6.50;6.00;;;;;22.50;41.04;101737.09;5114336;27;44936;-83
2022/07/16 07:28:37;;;;;;;;;5.00;4.50;;;;;22.55;41.04;101756.75;5113859;27;45390;-84
2022/07/16 07:31:02;;;;;;;;;5.25;5.25;;;;;22.57;40.65;101752.31;5111775;27;45965;-83
2022/07/16 07:33:28;;;;;;;;;5.00;5.00;;;;;22.61;41.11;101740.69;5110967;27;45044;-84
2022/07/16 07:35:53;;;;;;;;;5.00;5.00;;;;;22.66;40.52;101755.91;5110884;27;45252;-84
2022/07/16 07:38:19;;;;;;;;;4.25;4.25;;;;;22.63;40.65;101741.59;5112234;27;45234;-84
2022/07/16 07:40:44;;;;;;;;;5.75;5.25;;;;;22.77;40.88;101760.38;5113969;27;45309;-84
2022/07/16 07:43:09;;;;;;;;;4.50;4.50;;;;;22.71;40.45;101738.91;5113412;27;45082;-82
2022/07/16 07:45:35;;;;;;;;;5.00;5.00;;;;;22.76;40.14;101746.06;5112856;27;45184;-84
2022/07/16 07:48:00;;;;;;;;;5.00;4.75;;;;;22.64;40.55;101716.56;5114098;27;45258;-84
2022/07/16 07:50:26;;;;;;;;;5.25;5.00;;;;;22.71;40.64;101723.75;5113527;27;45592;-84
2022/07/16 07:52:52;;;;;;;;;5.75;5.25;;;;;22.76;40.27;101726.38;5114619;27;44903;-84
2022/07/16 07:55:18;;;;;;;;;5.00;5.00;;;;;22.83;39.90;101733.56;5112297;27;45065;-83
2022/07/16 07:57:43;;;;;;;;;7.00;6.00;;;;;22.74;40.18;101709.44;5112556;27;45524;-84
2022/07/16 08:00:09;;;;;;;;;4.50;4.50;;;;;22.94;39.62;101744.31;5113520;27;45722;-84
2022/07/16 08:02:35;;;;;;;;;5.00;5.00;;;;;23.10;39.54;101770.22;5108198;27;45687;-83
2022/07/16 08:05:00;;;;;;;;;5.00;4.25;;;;;22.90;39.33;101744.28;5130481;27;45807;-83
2022/07/16 08:07:26;;;;;;;;;6.75;6.00;;;;;22.98;39.74;101751.47;5114459;27;45065;-85
2022/07/16 08:09:51;;;;;;;;;5.50;5.00;;;;;23.02;39.39;101754.13;5110834;27;45544;-84
2022/07/16 08:12:16;;;;;;;;;5.00;5.00;;;;;23.08;39.57;101754.13;5111021;27;45229;-85
2022/07/16 08:14:42;;;;;;;;;5.00;5.00;;;;;23.12;39.51;101760.41;5110900;27;45259;-83
2022/07/16 08:17:07;;;;;;;;;4.25;4.25;;;;;23.02;39.38;101740.72;5111556;27;45193;-83
2022/07/16 08:19:33;;;;;;;;;4.00;4.00;;;;;23.28;39.28;101774.66;5111366;27;46042;-83
2022/07/16 08:22:00;;;;;;;;;6.25;5.25;;;;;23.31;39.40;101774.69;5113547;27;44916;-83
2022/07/16 08:27:10;;;;;;;;;7.00;6.00;;;;;23.18;38.43;101747.84;5112352;27;45035;-83
2022/07/16 08:29:36;;;;;;;;;5.75;5.75;;;;;23.37;38.73;101777.34;5113790;27;45372;-83
2022/07/16 08:32:01;;;;;;;;;7.00;7.00;;;;;23.07;39.06;101719.28;5111822;27;45176;-84
2022/07/16 08:34:26;;;;;;;;;4.25;3.75;;;;;23.25;38.66;101751.44;5112370;27;45096;-83
2022/07/16 08:36:52;;;;;;;;;5.75;5.25;;;;;23.41;38.70;101771.09;5108806;27;45643;-84
2022/07/16 08:39:19;;;;;;;;;5.00;5.00;;;;;23.44;38.86;101774.63;5113609;27;45508;-83
2022/07/16 08:41:44;;;;;;;;;4.50;4.25;;;;;23.49;39.11;101768.38;5109399;27;45310;-83
2022/07/16 08:44:13;;;;;;;;;6.75;6.75;;;;;23.43;38.63;101756.75;5111150;27;45081;-83
2022/07/16 08:46:40;;;;;;;;;6.00;5.00;;;;;23.53;38.41;101773.72;5128535;27;45028;-84
2022/07/16 08:49:05;;;;;;;;;5.00;5.00;;;;;23.41;38.42;101745.13;5109109;27;45998;-85
2022/07/16 08:51:33;;;;;;;;;5.75;5.00;;;;;23.53;38.17;101759.41;5109454;27;44854;-83
2022/07/16 08:54:12;;;;;;;;;7.00;6.00;;;;;23.60;37.87;101763.88;5109181;27;45012;-83
2022/07/16 08:56:37;;;;;;;;;6.25;5.50;;;;;23.59;38.03;101762.97;5129284;27;45004;-84
2022/07/16 08:59:05;;;;;;;;;7.00;6.00;;;;;23.77;37.85;101782.66;5126222;27;47545;-84
2022/07/16 09:01:31;;;;;;;;;6.75;6.25;;;;;23.71;37.83;101774.63;5110237;27;45503;-82
2022/07/16 09:03:58;;;;;;;;;4.75;4.75;;;;;23.73;38.14;101767.44;5112993;27;44916;-83
2022/07/16 09:06:24;;;;;;;;;7.00;6.25;;;;;23.80;37.98;101767.44;5128151;27;45367;-83
2022/07/16 09:08:50;;;;;;;;;5.75;5.50;;;;;23.88;37.65;101775.44;5112569;27;46043;-84
2022/07/16 09:11:22;;;;;;;;;7.50;7.00;;;;;23.94;37.98;101787.06;5106468;27;45496;-83
2022/07/16 09:14:06;;;;;;;;;6.50;6.25;;;;;24.03;38.06;101794.16;5108759;27;45429;-84
2022/07/16 09:16:34;;;;;;;;;6.00;5.50;;;;;23.96;37.69;101762.00;5113133;27;45117;-82
2022/07/16 09:19:13;;;;;;;;;7.00;6.75;;;;;24.02;37.30;101770.91;5128589;27;46417;-84
2022/07/16 09:22:01;;;;;;;;;5.00;5.00;;;;;24.09;37.34;101771.78;5111678;27;45423;-83
2022/07/16 09:24:54;;;;;;;;;5.00;5.00;;;;;24.18;37.23;101791.41;5112676;27;45023;-83
2022/07/16 09:27:25;;;;;;;;;5.75;5.75;;;;;24.25;37.23;101783.34;5111906;27;44985;-83
2022/07/16 09:30:02;;;;;;;;;5.00;5.00;;;;;24.14;37.54;101757.44;5110172;27;45631;-84
2022/07/16 09:32:36;;;;;;;;;5.25;5.25;;;;;24.36;37.03;101793.16;5123710;27;45649;-83
2022/07/16 09:35:06;;;;;;;;;5.00;4.00;;;;;24.38;36.74;101787.75;5129157;27;45004;-84
2022/07/16 09:37:44;;;;;;;;;4.25;4.25;;;;;24.41;36.78;101775.22;5113100;27;45086;-84
2022/07/16 09:40:10;;;;;;;;;6.00;6.00;;;;;24.36;37.07;101763.59;5109582;27;45779;-83
2022/07/16 09:42:39;;;;;;;;;4.25;4.00;;;;;24.41;36.49;101768.94;5109079;27;45637;-84
2022/07/16 09:45:06;;;;;;;;;5.25;5.00;;;;;24.44;36.46;101756.38;5111804;27;45110;-84
2022/07/16 09:47:32;;;;;;;;;4.00;4.00;;;;;24.44;35.89;101760.88;5112107;27;45141;-83
2022/07/16 09:49:57;;;;;;;;;5.25;4.00;;;;;24.37;36.49;101737.59;5110916;27;45263;-83
2022/07/16 09:52:27;;;;;;;;;5.00;4.25;;;;;24.60;36.54;101767.03;5108286;27;45353;-84
2022/07/16 09:54:58;;;;;;;;;5.25;4.25;;;;;24.65;36.47;101768.78;5107958;27;45129;-84
2022/07/16 09:57:25;;;;;;;;;6.00;5.25;;;;;24.77;36.25;101783.91;5107163;27;45221;-83
2022/07/16 09:59:51;;;;;;;;;5.00;4.25;;;;;24.68;36.49;101755.31;5124206;27;47906;-83
2022/07/16 10:02:17;;;;;;;;;5.00;5.00;;;;;24.83;36.20;101772.25;5111535;27;45020;-84
2022/07/16 10:04:42;;;;;;;;;6.00;5.25;;;;;24.89;36.57;101765.00;5110877;27;45054;-84
2022/07/16 10:07:07;;;;;;;;;5.25;5.25;;;;;24.99;35.91;101773.00;5110895;27;44975;-84
2022/07/16 10:09:33;;;;;;;;;5.00;4.00;;;;;25.08;35.50;101781.94;5110621;27;45187;-83
2022/07/16 10:12:20;;;;;;;;;6.00;6.00;;;;;25.09;35.42;101778.31;5108216;27;45018;-83
2022/07/16 10:14:52;;;;;;;;;6.00;4.50;;;;;25.19;34.76;101790.78;5126603;27;45200;-83
2022/07/16 10:17:21;;;;;;;;;5.75;5.75;;;;;25.29;35.58;101788.91;5111751;27;45056;-84
2022/07/16 10:20:01;;;;;;;;;6.75;6.50;;;;;25.24;34.82;101771.03;5111278;27;45709;-83
2022/07/16 10:22:31;;;;;;;;;5.00;5.00;;;;;25.30;35.14;101781.72;5109535;27;45171;-84
2022/07/16 10:24:57;;;;;;;;;5.25;5.25;;;;;25.31;35.45;101772.72;5107545;27;45150;-83
2022/07/16 10:27:29;;;;;;;;;5.00;5.00;;;;;25.48;34.94;101798.56;5106297;27;45171;-84
2022/07/16 10:30:16;;;;;;;;;6.00;6.00;;;;;25.54;34.88;101792.22;5108417;27;45531;-84
2022/07/16 10:33:00;;;;;;;;;3.75;3.75;;;;;25.54;34.30;101781.47;5110776;27;45378;-84
2022/07/16 10:35:31;;;;;;;;;5.00;4.75;;;;;25.27;33.88;101736.91;5127777;27;45011;-84
2022/07/16 10:38:11;;;;;;;;;6.00;6.00;;;;;25.24;34.21;101714.50;5111434;27;45080;-83
2022/07/16 10:40:39;;;;;;;;;6.50;5.00;;;;;25.14;33.64;101703.84;5110259;27;47276;-83
2022/07/16 10:43:21;;;;;;;;;5.25;5.00;;;;;25.74;33.14;101786.63;5108724;27;46076;-84
2022/07/16 10:45:58;;;;;;;;;7.00;6.25;;;;;25.63;33.32;101750.84;5111742;27;45154;-84
2022/07/16 10:48:49;;;;;;;;;5.75;5.00;;;;;25.83;33.43;101791.94;5108640;27;45323;-83
2022/07/16 10:51:16;;;;;;;;;4.50;4.50;;;;;25.71;33.28;101759.72;5111074;27;45558;-83
2022/07/16 10:54:03;;;;;;;;;5.00;5.00;;;;;25.89;33.29;101783.78;5107981;27;45310;-84
2022/07/16 10:56:35;;;;;;;;;5.50;5.00;;;;;25.66;33.60;101735.53;5124556;27;45244;-84
2022/07/16 10:59:05;;;;;;;;;6.75;6.00;;;;;25.71;33.20;101719.31;5127765;27;45281;-84
2022/07/16 11:01:31;;;;;;;;;5.00;5.00;;;;;26.10;33.06;101779.91;5111095;27;45712;-83
2022/07/16 11:03:57;;;;;;;;;7.00;7.00;;;;;25.75;33.21;101704.94;5110835;27;44972;-84
2022/07/16 11:06:23;;;;;;;;;6.00;6.00;;;;;26.28;33.49;101784.19;5124894;27;45241;-85
2022/07/16 11:09:00;;;;;;;;;7.00;6.75;;;;;26.15;32.60;101751.09;5109556;27;45240;-84
2022/07/16 11:11:33;;;;;;;;;4.75;4.75;;;;;26.05;32.64;101718.91;5127058;27;47534;-84
2022/07/16 11:14:00;;;;;;;;;5.25;5.25;;;;;25.98;32.37;101691.19;5107771;27;45600;-84
2022/07/16 11:16:26;;;;;;;;;5.25;5.25;;;;;26.14;32.14;101721.50;5109285;27;45042;-83
2022/07/16 11:18:51;;;;;;;;;5.75;5.75;;;;;26.41;32.16;101757.94;5109883;27;45350;-85
2022/07/16 11:21:17;;;;;;;;;7.75;6.75;;;;;26.47;32.46;101758.78;5109526;27;45256;-84
2022/07/16 11:23:54;;;;;;;;;5.00;5.00;;;;;26.68;31.85;101773.72;5124212;27;45309;-84
2022/07/16 11:26:20;;;;;;;;;5.25;5.25;;;;;26.69;31.26;101770.09;5108227;27;45031;-84
2022/07/16 11:28:54;;;;;;;;;7.75;7.25;;;;;26.32;31.61;101696.09;5111523;27;45163;-84
2022/07/16 11:31:28;;;;;;;;;5.00;4.25;;;;;26.20;31.76;101664.78;5108687;27;45639;-83
2022/07/16 11:33:58;;;;;;;;;6.75;6.75;;;;;26.43;31.66;101694.13;5109889;27;45173;-83